• Join FlightAware (Why Join?)
  • Login
  • US Flag 
01:11PM EDT


 

Airport Tracker/Info


-or-


 

Live Flight TrackerFlight Track Log ✈ SKW5653 ✈ 29-Aug-2014 ✈ KLAX - KAUS

Flight Track Log - Related Links

Times and Time Zones

All times are in EDT time to prevent confusion due to time zone crossing. See the SKW5653 flight status page for this flight to view local times or setup timezone preferences in your user account.

Time Position Orientation Groundspeed Altitude Reporting Facility
EDT Latitude Longitude Course Direction KTS MPH feet Rate Location/Type
11:33AM 33.9306 -118.4539 97° East 176 203 1,700  Level Los Angeles Center
11:34AM 33.8864 -118.5175 230° Southwest 230 265 3,500 1,740 Climbing Los Angeles Center
11:35AM 33.8980 -117.9364 96° East  Level Estimated
11:35AM 33.8178 -118.5319 190° South 269 310 5,400  Level Los Angeles Center
11:36AM 33.8827 -117.7793 97° East  Level Estimated
11:36AM 33.7400 -118.5244 175° South 282 325 7,600  Level Los Angeles Center
11:37AM 33.8673 -117.6222 97° East  Level Estimated
11:37AM 33.6611 -118.4550 144° Southeast 309 356 10,000  Level Los Angeles Center
11:38AM 33.8517 -117.4652 97° East  Level Estimated
11:38AM 33.6022 -118.3806 134° Southeast 310 357 12,100  Level Los Angeles Center
11:39AM 33.5864 -118.2742 100° East 337 388 13,400 1,620 Climbing Los Angeles Center
11:40AM 33.5886 -118.1603 89° East 346 398 15,500 2,100 Climbing Los Angeles Center
11:41AM 33.5914 -118.0244 89° East 346 398 17,800 1,800 Climbing Los Angeles Center
11:42AM 33.5950 -117.9092 88° East 346 398 19,300 1,260 Climbing Los Angeles Center
11:43AM 33.5978 -117.7881 88° East 361 415 20,500 1,200 Climbing Los Angeles Center
11:44AM 33.6014 -117.6619 88° East 375 432 21,800 1,260 Climbing Los Angeles Center
11:46AM 33.6039 -117.5353 89° East 378 435 23,200 1,320 Climbing Los Angeles Center
11:47AM 33.6078 -117.3786 88° East 392 451 24,600 1,200 Climbing Los Angeles Center
11:48AM 33.6092 -117.2447 89° East 397 457 25,800 1,140 Climbing Los Angeles Center
11:49AM 33.6119 -117.1092 89° East 406 467 27,000 1,080 Climbing Los Angeles Center
11:50AM 33.6031 -116.9731 94° East 408 470 28,100 900 Climbing Los Angeles Center
11:51AM 33.5872 -116.8372 98° East 409 471 28,900 720 Climbing Los Angeles Center
11:52AM 33.5708 -116.6972 98° East 413 475 29,700 720 Climbing Los Angeles Center
11:53AM 33.5492 -116.5217 98° East 434 499 30,500 600 Climbing Los Angeles Center
11:54AM 33.5300 -116.3717 99° East 449 517 31,000 480 Climbing Los Angeles Center
11:55AM 33.5103 -116.2181 99° East 461 531 31,600 600 Climbing Los Angeles Center
11:56AM 33.4903 -116.0608 99° East 469 540 32,300 720 Climbing Los Angeles Center
11:57AM 33.4689 -115.9047 99° East 471 542 33,200 900 Climbing Los Angeles Center
11:58AM 33.4497 -115.7500 98° East 471 542 34,200 1,020 Climbing Los Angeles Center
11:59AM 33.4242 -115.5669 99° East 466 536 35,400 1,020 Climbing Los Angeles Center
12:00PM 33.4044 -115.4164 99° East 461 531 36,400 720 Climbing Los Angeles Center
12:01PM 33.3842 -115.2672 99° East 457 526 37,000 240 Climbing Los Angeles Center
12:02PM 33.3644 -115.1158 99° East 458 527 37,000  Level Los Angeles Center
12:03PM 33.3414 -114.9614 100° East 469 540 37,000  Level Los Angeles Center
12:04PM 33.3208 -114.8067 99° East 471 542 37,000  Level Los Angeles Center
12:05PM 33.2956 -114.6239 99° East 468 539 37,000  Level Los Angeles Center
12:06PM 33.2744 -114.4733 99° East 464 534 37,000  Level Los Angeles Center
12:07PM 33.2517 -114.3214 100° East 464 534 37,000  Level Los Angeles Center
12:08PM 33.2294 -114.1667 100° East 470 541 37,000  Level Los Angeles Center
12:09PM 33.2081 -114.0114 99° East 473 544 37,000  Level Los Angeles Center
12:10PM 33.1847 -113.8553 100° East 475 547 37,000  Level Los Angeles Center
12:11PM 33.1564 -113.6681 100° East 478 550 37,000  Level Los Angeles Center
12:12PM 33.1325 -113.5114 100° East 480 552 37,000  Level Los Angeles Center
12:14PM 33.1072 -113.3425 100° East 481 554 37,000  Level Los Angeles Center
12:15PM 33.0825 -113.1847 101° East 481 554 37,000  Level Los Angeles Center
12:16PM 33.0542 -112.9922 100° East 481 554 37,000  Level Albuquerque Center
12:17PM 33.0292 -112.8325 101° East 484 557 37,000  Level Albuquerque Center
12:18PM 33.0042 -112.6753 101° East 484 557 37,000  Level Albuquerque Center
12:19PM 32.9725 -112.4836 101° East 484 557 37,000  Level Albuquerque Center
12:20PM 32.9464 -112.3236 101° East 486 559 37,000  Level Albuquerque Center
12:21PM 32.9206 -112.1631 101° East 487 560 37,000  Level Albuquerque Center
12:22PM 32.8958 -112.0050 101° East 488 562 37,000  Level Albuquerque Center
12:23PM 32.8697 -111.8464 101° East 488 562 37,000  Level Albuquerque Center
12:24PM 32.8439 -111.6892 101° East 488 562 37,000  Level Albuquerque Center
12:25PM 32.8119 -111.4992 101° East 488 562 37,000  Level Albuquerque Center
12:26PM 32.7867 -111.3419 101° East 489 563 37,000  Level Albuquerque Center
12:27PM 32.7594 -111.1853 102° East 488 562 37,000  Level Albuquerque Center
12:28PM 32.7317 -111.0275 102° East 488 562 37,000  Level Albuquerque Center
12:29PM 32.7036 -110.8692 102° East 489 563 37,000  Level Albuquerque Center
12:30PM 32.6714 -110.6806 101° East 489 563 37,000  Level Albuquerque Center
12:31PM 32.6431 -110.5225 102° East 489 563 37,000  Level Albuquerque Center
12:32PM 32.6153 -110.3656 102° East 489 563 37,000  Level Albuquerque Center
12:33PM 32.5858 -110.1936 101° East 489 563 37,000  Level Albuquerque Center
12:35PM 32.5558 -110.0375 103° East 489 563 37,000  Level Albuquerque Center
12:36PM 32.5283 -109.8808 102° East 489 563 37,000  Level Albuquerque Center
12:37PM 32.4989 -109.7253 103° East 489 563 37,000  Level Albuquerque Center
12:38PM 32.4622 -109.5358 103° East 491 565 37,000  Level Albuquerque Center
12:39PM 32.4344 -109.3797 102° East 491 565 37,000  Level Albuquerque Center
12:40PM 32.4042 -109.2250 103° East 491 565 37,000  Level Albuquerque Center
12:41PM 32.3761 -109.0697 102° East 491 565 37,000  Level Albuquerque Center
12:42PM 32.3464 -108.9139 103° East 490 564 37,000  Level Albuquerque Center
12:43PM 32.3108 -108.7272 103° East 490 564 37,000  Level Albuquerque Center
12:44PM 32.2811 -108.5719 103° East 490 564 37,000  Level Albuquerque Center
12:45PM 32.2514 -108.4214 103° East 490 564 37,000  Level Albuquerque Center
12:46PM 32.2206 -108.2650 103° East 490 564 37,000  Level Albuquerque Center
12:47PM 32.1839 -108.0783 103° East 490 564 37,000  Level Albuquerque Center
12:48PM 32.1536 -107.9222 103° East 490 564 37,000  Level Albuquerque Center
12:49PM 32.1225 -107.7681 103° East 490 564 37,000  Level Albuquerque Center
12:50PM 32.0919 -107.6128 103° East 490 564 37,000  Level Albuquerque Center
12:51PM 32.0603 -107.4583 104° East 490 564 37,000  Level Albuquerque Center
12:52PM 32.0242 -107.2744 103° East 489 563 37,000  Level Albuquerque Center
12:53PM 31.9928 -107.1208 104° East 489 563 37,000  Level Albuquerque Center
12:54PM 31.9608 -106.9675 104° East 488 562 37,000  Level Albuquerque Center
12:55PM 31.9294 -106.8164 104° East 483 556 37,000  Level Albuquerque Center
12:56PM 31.8969 -106.6639 104° East 482 555 37,000  Level Albuquerque Center
12:57PM 31.8569 -106.4794 104° East 483 556 37,000  Level Albuquerque Center
12:58PM 31.8244 -106.3261 104° East 485 558 37,000  Level Albuquerque Center
12:59PM 31.8047 -106.1681 98° East 487 560 37,000  Level Albuquerque Center
01:00PM 31.7839 -106.0156 99° East 475 547 37,000  Level Albuquerque Center
01:01PM 31.7656 -105.8614 98° East 475 547 37,000  Level Albuquerque Center
01:02PM 31.7461 -105.7075 98° East 475 547 37,000  Level Albuquerque Center
01:03PM 31.7239 -105.5225 98° East 476 548 37,000  Level Albuquerque Center
01:05PM 31.7050 -105.3683 98° East 476 548 37,000  Level Albuquerque Center
01:06PM 31.6861 -105.2164 98° East 471 542 37,000  Level Albuquerque Center
01:07PM 31.6669 -105.0614 98° East 472 543 37,000  Level Albuquerque Center
01:08PM 31.6478 -104.9050 98° East 478 550 37,000  Level Albuquerque Center
01:09PM 31.6275 -104.7514 99° East 478 550 37,000  Level Albuquerque Center
01:10PM 31.6078 -104.5981 99° East 478 550 37,000  Level Albuquerque Center
01:11PM 31.5839 -104.4150 99° East 477 549 37,000  Level Albuquerque Center
01:12PM 31.5650 -104.2644 98° East 473 544 37,000  Level Albuquerque Center
01:13PM 31.5447 -104.1131 99° East 471 542 37,000  Level Albuquerque Center
01:14PM 31.5247 -103.9614 99° East 471 542 37,000  Level Albuquerque Center
01:15PM 31.5044 -103.8106 99° East 471 542 37,000  Level Albuquerque Center
01:16PM 31.4797 -103.6339 99° East 469 540 37,000  Level Albuquerque Center
01:17PM 31.4592 -103.4856 99° East 467 537 37,000  Level Albuquerque Center
01:18PM 31.4403 -103.3369 98° East 465 535 37,000  Level Albuquerque Center
01:19PM 31.4219 -103.1883 98° East 465 535 37,000  Level Albuquerque Center
01:20PM 31.4028 -103.0386 98° East 465 535 37,000  Level Albuquerque Center
01:21PM 31.3803 -102.8606 98° East 464 534 37,000  Level Albuquerque Center
01:22PM 31.3611 -102.7131 99° East 464 534 37,000  Level Albuquerque Center
01:23PM 31.3425 -102.5650 98° East 463 533 37,000  Level Albuquerque Center
01:24PM 31.3206 -102.3986 99° East 478 550 37,000  Level Albuquerque Center
01:25PM 31.3008 -102.2522 99° East 467 537 37,000  Level Albuquerque Center
01:26PM 31.2811 -102.1050 99° East 464 534 37,000  Level Albuquerque Center
01:27PM 31.2622 -101.9569 98° East 463 533 37,000  Level Albuquerque Center
01:28PM 31.2425 -101.8047 99° East 463 533 37,000  Level Albuquerque Center
01:29PM 31.2217 -101.6567 99° East 463 533 37,000  Level Albuquerque Center
01:31PM 31.1944 -101.4494 99° East 464 534 37,000  Level Houston Center
01:32PM 31.1739 -101.2978 99° East 465 535 37,000  Level Houston Center
01:33PM 31.1489 -101.1172 99° East 466 536 37,000  Level Houston Center
01:34PM 31.1286 -100.9672 99° East 466 536 37,000  Level Houston Center
01:35PM 31.1069 -100.8169 100° East 468 539 37,000  Level Houston Center
01:36PM 31.0839 -100.6669 100° East 468 539 37,000  Level Houston Center
01:37PM 31.0631 -100.5161 99° East 469 540 37,000  Level Houston Center
01:38PM 31.0414 -100.3661 100° East 469 540 37,000  Level Houston Center
01:39PM 31.0139 -100.1864 100° East 469 540 37,000  Level Houston Center
01:40PM 30.9911 -100.0358 100° East 469 540 37,000 -900 Level Houston Center
01:41PM 30.9678 -99.8850 100° East 471 542 35,200 -1,920 Descending Houston Center
01:42PM 30.9456 -99.7303 99° East 478 550 33,100 -2,040 Descending Houston Center
01:43PM 30.9208 -99.5781 101° East 480 552 31,000 -2,100 Descending Houston Center
01:44PM 30.8983 -99.4292 100° East 472 543 28,800 -2,280 Descending Houston Center
01:45PM 30.8706 -99.2536 100° East 466 536 26,300 -2,160 Descending Houston Center
01:46PM 30.8489 -99.1131 100° East 453 521 24,400 -1,920 Descending Houston Center
01:47PM 30.8278 -98.9764 100° East 435 501 22,400 -1,980 Descending Houston Center
01:48PM 30.8061 -98.8422 101° East 428 493 20,400 -1,920 Descending Houston Center
01:49PM 30.7889 -98.7119 99° East 415 478 18,400 -2,160 Descending Houston Center
01:50PM 30.7278 -98.5811 118° Southeast 388 447 16,000 -2,160 Descending Houston Center
01:51PM 30.6703 -98.4819 124° Southeast 374 430 14,000 -1,980 Descending Houston Center
01:53PM 30.6150 -98.3881 124° Southeast 359 413 12,000 -2,100 Descending Houston Center
01:53PM 30.5833 -98.3342 124° Southeast 347 399 10,500 -1,860 Descending Houston Center
01:54PM 30.5631 -98.2983 123° Southeast 341 392 10,100 -480 Descending Houston Center
01:54PM 30.5286 -98.2339 122° Southeast 296 341 10,000 -120 Descending Houston Center
01:55PM 30.5225 -98.2156 111° Southeast 303 349 10,000  Level Houston Center
01:55PM 30.5083 -98.1442 103° East 284 327 10,000 -240 Level Houston Center
01:56PM 30.5011 -98.1072 103° East 291 335 9,800 -1,440 Descending Houston Center
01:57PM 30.4811 -98.0194 105° East 287 330 8,000 -1,680 Descending Houston Center
01:57PM 30.4661 -97.9528 105° East 284 327 6,900 -1,380 Descending Houston Center
01:58PM 30.4622 -97.9314 102° East 285 328 6,600 -1,440 Descending Houston Center
01:58PM 30.4442 -97.8706 109° East 274 315 5,500 -1,380 Descending Houston Center
01:59PM 30.4347 -97.8525 121° Southeast 272 313 5,200 -1,200 Descending Houston Center
01:59PM 30.4117 -97.7897 113° Southeast 260 299 4,300 -1,080 Descending Houston Center
02:00PM 30.4072 -97.7753 110° East 265 305 4,100 -900 Descending Houston Center
02:00PM 30.3844 -97.7203 116° Southeast 245 282 3,400 -1,020 Descending Houston Center
02:01PM 30.3653 -97.7092 153° Southeast 239 275 3,100 -720 Descending Houston Center
02:01PM 30.3336 -97.6900 152° Southeast 204 235 2,700 -540 Descending Houston Center
02:02PM 30.3103 -97.6828 165° South 223 257 2,600 -840 Descending Houston Center
02:03PM 30.2803 -97.6819 179° South 180 207 1,800 -1,080 Descending Houston Center
02:03PM 30.2619 -97.6794 173° South 199 229 1,500 -840 Descending Houston Center
02:04PM 30.2403 -97.6819 186° South 129 148 1,000 -420 Descending Houston Center
02:04PM 30.2150 -97.6800 176° South 170 196 1,100 240 Climbing Houston Center